sensor_id;sensor_type;location;lat;lon;timestamp;P1;durP1;ratioP1;P2;durP2;ratioP2
76346;SDS011;65171;48.378;10.010;2022-12-18T00:02:15;71.47;;;32.80;;
76346;SDS011;65171;48.378;10.010;2022-12-18T00:04:40;65.33;;;31.33;;
76346;SDS011;65171;48.378;10.010;2022-12-18T00:07:05;70.93;;;31.30;;
76346;SDS011;65171;48.378;10.010;2022-12-18T00:09:31;67.40;;;30.83;;
76346;SDS011;65171;48.378;10.010;2022-12-18T00:11:56;68.23;;;31.07;;
76346;SDS011;65171;48.378;10.010;2022-12-18T00:14:21;67.07;;;31.40;;
76346;SDS011;65171;48.378;10.010;2022-12-18T00:16:46;70.07;;;31.20;;
76346;SDS011;65171;48.378;10.010;2022-12-18T00:19:12;65.83;;;30.37;;
76346;SDS011;65171;48.378;10.010;2022-12-18T00:21:38;69.67;;;31.40;;
76346;SDS011;65171;48.378;10.010;2022-12-18T00:24:04;62.80;;;29.00;;
76346;SDS011;65171;48.378;10.010;2022-12-18T00:26:30;66.03;;;30.57;;
76346;SDS011;65171;48.378;10.010;2022-12-18T00:29:01;65.57;;;30.43;;
76346;SDS011;65171;48.378;10.010;2022-12-18T00:31:29;64.30;;;30.30;;
76346;SDS011;65171;48.378;10.010;2022-12-18T00:33:55;72.43;;;31.10;;
76346;SDS011;65171;48.378;10.010;2022-12-18T00:36:22;66.40;;;32.13;;
76346;SDS011;65171;48.378;10.010;2022-12-18T00:38:49;72.00;;;31.20;;
76346;SDS011;65171;48.378;10.010;2022-12-18T00:41:15;68.63;;;29.90;;
76346;SDS011;65171;48.378;10.010;2022-12-18T00:43:41;68.30;;;31.47;;
76346;SDS011;65171;48.378;10.010;2022-12-18T00:46:06;73.20;;;32.13;;
76346;SDS011;65171;48.378;10.010;2022-12-18T00:48:32;70.33;;;31.13;;
76346;SDS011;65171;48.378;10.010;2022-12-18T00:50:57;69.07;;;31.23;;
76346;SDS011;65171;48.378;10.010;2022-12-18T00:53:22;69.43;;;31.40;;
76346;SDS011;65171;48.378;10.010;2022-12-18T00:55:48;68.57;;;31.63;;
76346;SDS011;65171;48.378;10.010;2022-12-18T00:58:13;74.53;;;30.13;;
76346;SDS011;65171;48.378;10.010;2022-12-18T01:00:40;67.80;;;30.77;;
76346;SDS011;65171;48.378;10.010;2022-12-18T01:03:06;72.67;;;30.67;;
76346;SDS011;65171;48.378;10.010;2022-12-18T01:05:31;71.70;;;30.63;;
76346;SDS011;65171;48.378;10.010;2022-12-18T01:07:57;79.80;;;31.17;;
76346;SDS011;65171;48.378;10.010;2022-12-18T01:10:23;72.67;;;30.20;;
76346;SDS011;65171;48.378;10.010;2022-12-18T01:12:48;64.73;;;30.50;;
76346;SDS011;65171;48.378;10.010;2022-12-18T01:15:23;69.70;;;30.33;;
76346;SDS011;65171;48.378;10.010;2022-12-18T01:17:48;68.83;;;31.33;;
76346;SDS011;65171;48.378;10.010;2022-12-18T01:20:13;74.93;;;31.03;;
76346;SDS011;65171;48.378;10.010;2022-12-18T01:22:38;68.83;;;30.97;;
76346;SDS011;65171;48.378;10.010;2022-12-18T01:25:04;81.53;;;32.53;;
76346;SDS011;65171;48.378;10.010;2022-12-18T01:27:30;66.43;;;30.30;;
76346;SDS011;65171;48.378;10.010;2022-12-18T01:29:56;69.30;;;30.93;;
76346;SDS011;65171;48.378;10.010;2022-12-18T01:32:21;68.50;;;30.83;;
76346;SDS011;65171;48.378;10.010;2022-12-18T01:34:46;73.93;;;31.97;;
76346;SDS011;65171;48.378;10.010;2022-12-18T01:37:12;74.20;;;31.40;;
76346;SDS011;65171;48.378;10.010;2022-12-18T01:39:37;73.07;;;32.37;;
76346;SDS011;65171;48.378;10.010;2022-12-18T01:42:02;74.40;;;31.17;;
76346;SDS011;65171;48.378;10.010;2022-12-18T01:47:15;75.10;;;32.40;;
76346;SDS011;65171;48.378;10.010;2022-12-18T01:49:44;74.83;;;31.97;;
76346;SDS011;65171;48.378;10.010;2022-12-18T01:52:10;71.73;;;31.37;;
76346;SDS011;65171;48.378;10.010;2022-12-18T01:54:35;70.40;;;31.67;;
76346;SDS011;65171;48.378;10.010;2022-12-18T01:57:00;70.77;;;30.80;;
76346;SDS011;65171;48.378;10.010;2022-12-18T01:59:25;69.37;;;30.93;;
76346;SDS011;65171;48.378;10.010;2022-12-18T02:01:51;72.10;;;32.17;;
76346;SDS011;65171;48.378;10.010;2022-12-18T02:06:50;75.13;;;32.87;;
76346;SDS011;65171;48.378;10.010;2022-12-18T02:10:22;70.73;;;31.10;;
76346;SDS011;65171;48.378;10.010;2022-12-18T02:16:10;76.77;;;32.67;;
76346;SDS011;65171;48.378;10.010;2022-12-18T02:18:20;67.63;;;28.83;;
76346;SDS011;65171;48.378;10.010;2022-12-18T02:28:46;63.73;;;29.67;;
76346;SDS011;65171;48.378;10.010;2022-12-18T02:31:17;72.90;;;30.60;;
76346;SDS011;65171;48.378;10.010;2022-12-18T02:33:47;73.07;;;32.00;;
76346;SDS011;65171;48.378;10.010;2022-12-18T02:36:14;67.53;;;30.17;;
76346;SDS011;65171;48.378;10.010;2022-12-18T02:38:42;68.30;;;30.20;;
76346;SDS011;65171;48.378;10.010;2022-12-18T02:41:09;75.10;;;32.40;;
76346;SDS011;65171;48.378;10.010;2022-12-18T02:43:35;71.73;;;30.70;;
76346;SDS011;65171;48.378;10.010;2022-12-18T02:46:00;70.53;;;32.00;;
76346;SDS011;65171;48.378;10.010;2022-12-18T02:48:46;67.57;;;31.10;;
76346;SDS011;65171;48.378;10.010;2022-12-18T02:51:18;67.83;;;30.33;;
76346;SDS011;65171;48.378;10.010;2022-12-18T02:53:52;68.23;;;30.37;;
76346;SDS011;65171;48.378;10.010;2022-12-18T02:56:28;71.90;;;30.60;;
76346;SDS011;65171;48.378;10.010;2022-12-18T02:58:58;69.30;;;30.77;;
76346;SDS011;65171;48.378;10.010;2022-12-18T03:04:04;74.30;;;31.67;;
76346;SDS011;65171;48.378;10.010;2022-12-18T03:06:35;70.97;;;31.43;;
76346;SDS011;65171;48.378;10.010;2022-12-18T03:09:07;72.10;;;31.17;;
76346;SDS011;65171;48.378;10.010;2022-12-18T03:11:36;67.40;;;32.03;;
76346;SDS011;65171;48.378;10.010;2022-12-18T03:14:05;75.47;;;31.77;;
76346;SDS011;65171;48.378;10.010;2022-12-18T03:16:32;72.83;;;31.90;;
76346;SDS011;65171;48.378;10.010;2022-12-18T03:19:01;74.20;;;32.50;;
76346;SDS011;65171;48.378;10.010;2022-12-18T03:21:41;74.97;;;32.10;;
76346;SDS011;65171;48.378;10.010;2022-12-18T03:24:10;68.67;;;30.40;;
76346;SDS011;65171;48.378;10.010;2022-12-18T03:26:36;75.23;;;32.33;;
76346;SDS011;65171;48.378;10.010;2022-12-18T03:29:09;80.23;;;33.30;;
76346;SDS011;65171;48.378;10.010;2022-12-18T03:31:40;71.67;;;32.30;;
76346;SDS011;65171;48.378;10.010;2022-12-18T03:34:13;68.93;;;32.30;;
76346;SDS011;65171;48.378;10.010;2022-12-18T03:36:42;72.83;;;32.33;;
76346;SDS011;65171;48.378;10.010;2022-12-18T03:39:08;66.90;;;31.10;;
76346;SDS011;65171;48.378;10.010;2022-12-18T03:44:14;77.47;;;34.10;;
76346;SDS011;65171;48.378;10.010;2022-12-18T03:46:47;69.13;;;31.70;;
76346;SDS011;65171;48.378;10.010;2022-12-18T03:51:59;73.37;;;33.30;;
76346;SDS011;65171;48.378;10.010;2022-12-18T03:54:29;70.10;;;30.93;;
76346;SDS011;65171;48.378;10.010;2022-12-18T03:56:58;71.23;;;31.97;;
76346;SDS011;65171;48.378;10.010;2022-12-18T03:59:28;77.50;;;32.33;;
76346;SDS011;65171;48.378;10.010;2022-12-18T04:01:55;75.07;;;32.17;;
76346;SDS011;65171;48.378;10.010;2022-12-18T04:04:22;76.67;;;30.83;;
76346;SDS011;65171;48.378;10.010;2022-12-18T04:06:48;75.73;;;32.47;;
76346;SDS011;65171;48.378;10.010;2022-12-18T04:09:15;72.35;;;32.63;;
76346;SDS011;65171;48.378;10.010;2022-12-18T04:11:41;69.60;;;31.30;;
76346;SDS011;65171;48.378;10.010;2022-12-18T04:14:06;73.88;;;31.20;;
76346;SDS011;65171;48.378;10.010;2022-12-18T04:16:32;71.57;;;32.77;;
76346;SDS011;65171;48.378;10.010;2022-12-18T04:18:57;74.17;;;32.20;;
76346;SDS011;65171;48.378;10.010;2022-12-18T04:21:22;74.30;;;32.67;;
76346;SDS011;65171;48.378;10.010;2022-12-18T04:23:47;72.90;;;31.63;;
76346;SDS011;65171;48.378;10.010;2022-12-18T04:26:12;71.57;;;31.97;;
76346;SDS011;65171;48.378;10.010;2022-12-18T04:28:38;78.57;;;32.93;;
76346;SDS011;65171;48.378;10.010;2022-12-18T04:31:03;75.47;;;33.70;;
76346;SDS011;65171;48.378;10.010;2022-12-18T04:33:28;72.70;;;31.10;;
76346;SDS011;65171;48.378;10.010;2022-12-18T04:35:53;79.13;;;33.03;;
76346;SDS011;65171;48.378;10.010;2022-12-18T04:38:19;75.13;;;31.50;;
76346;SDS011;65171;48.378;10.010;2022-12-18T04:40:44;71.90;;;32.00;;
76346;SDS011;65171;48.378;10.010;2022-12-18T04:43:09;77.83;;;33.93;;
76346;SDS011;65171;48.378;10.010;2022-12-18T04:45:34;71.43;;;32.03;;
76346;SDS011;65171;48.378;10.010;2022-12-18T04:48:00;70.47;;;31.43;;
76346;SDS011;65171;48.378;10.010;2022-12-18T04:50:26;69.23;;;32.30;;
76346;SDS011;65171;48.378;10.010;2022-12-18T04:52:52;74.10;;;32.17;;
76346;SDS011;65171;48.378;10.010;2022-12-18T04:55:17;78.20;;;32.40;;
76346;SDS011;65171;48.378;10.010;2022-12-18T04:57:42;71.23;;;31.90;;
76346;SDS011;65171;48.378;10.010;2022-12-18T05:00:08;68.53;;;28.50;;
76346;SDS011;65171;48.378;10.010;2022-12-18T05:02:33;68.17;;;30.20;;
76346;SDS011;65171;48.378;10.010;2022-12-18T05:04:58;71.13;;;32.53;;
76346;SDS011;65171;48.378;10.010;2022-12-18T05:07:24;73.73;;;30.57;;
76346;SDS011;65171;48.378;10.010;2022-12-18T05:09:49;72.93;;;31.13;;
76346;SDS011;65171;48.378;10.010;2022-12-18T05:12:14;70.17;;;31.13;;
76346;SDS011;65171;48.378;10.010;2022-12-18T05:14:40;69.43;;;30.43;;
76346;SDS011;65171;48.378;10.010;2022-12-18T05:17:05;74.00;;;32.83;;
76346;SDS011;65171;48.378;10.010;2022-12-18T05:19:30;70.80;;;31.00;;
76346;SDS011;65171;48.378;10.010;2022-12-18T05:21:56;71.90;;;32.10;;
76346;SDS011;65171;48.378;10.010;2022-12-18T05:24:21;73.67;;;32.37;;
76346;SDS011;65171;48.378;10.010;2022-12-18T05:26:47;72.97;;;31.40;;
76346;SDS011;65171;48.378;10.010;2022-12-18T05:29:12;74.43;;;31.73;;
76346;SDS011;65171;48.378;10.010;2022-12-18T05:31:38;70.33;;;31.10;;
76346;SDS011;65171;48.378;10.010;2022-12-18T05:34:04;77.73;;;32.47;;
76346;SDS011;65171;48.378;10.010;2022-12-18T05:36:29;77.73;;;31.90;;
76346;SDS011;65171;48.378;10.010;2022-12-18T05:38:54;68.87;;;30.77;;
76346;SDS011;65171;48.378;10.010;2022-12-18T05:41:19;75.30;;;31.10;;
76346;SDS011;65171;48.378;10.010;2022-12-18T05:43:45;69.00;;;30.77;;
76346;SDS011;65171;48.378;10.010;2022-12-18T05:46:14;73.97;;;32.33;;
76346;SDS011;65171;48.378;10.010;2022-12-18T05:48:42;73.77;;;32.63;;
76346;SDS011;65171;48.378;10.010;2022-12-18T05:51:11;75.30;;;31.87;;
76346;SDS011;65171;48.378;10.010;2022-12-18T05:53:41;72.77;;;31.63;;
76346;SDS011;65171;48.378;10.010;2022-12-18T05:56:10;76.13;;;32.77;;
76346;SDS011;65171;48.378;10.010;2022-12-18T05:58:38;75.33;;;31.77;;
76346;SDS011;65171;48.378;10.010;2022-12-18T06:03:36;73.47;;;31.93;;
76346;SDS011;65171;48.378;10.010;2022-12-18T06:06:01;81.03;;;34.17;;
76346;SDS011;65171;48.378;10.010;2022-12-18T06:08:27;83.57;;;34.13;;
76346;SDS011;65171;48.378;10.010;2022-12-18T06:10:52;84.33;;;33.87;;
76346;SDS011;65171;48.378;10.010;2022-12-18T06:13:19;80.60;;;33.10;;
76346;SDS011;65171;48.378;10.010;2022-12-18T06:15:45;80.93;;;33.27;;
76346;SDS011;65171;48.378;10.010;2022-12-18T06:18:10;82.80;;;34.33;;
76346;SDS011;65171;48.378;10.010;2022-12-18T06:20:35;79.90;;;32.90;;
76346;SDS011;65171;48.378;10.010;2022-12-18T06:23:00;78.37;;;33.53;;
76346;SDS011;65171;48.378;10.010;2022-12-18T06:25:26;87.40;;;34.50;;
76346;SDS011;65171;48.378;10.010;2022-12-18T06:27:51;85.40;;;34.70;;
76346;SDS011;65171;48.378;10.010;2022-12-18T06:30:16;79.47;;;33.73;;
76346;SDS011;65171;48.378;10.010;2022-12-18T06:32:41;79.07;;;32.97;;
76346;SDS011;65171;48.378;10.010;2022-12-18T06:35:06;86.93;;;34.63;;
76346;SDS011;65171;48.378;10.010;2022-12-18T06:37:32;90.37;;;33.93;;
76346;SDS011;65171;48.378;10.010;2022-12-18T06:39:57;80.63;;;32.27;;
76346;SDS011;65171;48.378;10.010;2022-12-18T06:42:23;89.43;;;34.07;;
76346;SDS011;65171;48.378;10.010;2022-12-18T06:44:49;80.13;;;32.07;;
76346;SDS011;65171;48.378;10.010;2022-12-18T06:47:14;82.93;;;33.70;;
76346;SDS011;65171;48.378;10.010;2022-12-18T06:49:39;85.30;;;34.13;;
76346;SDS011;65171;48.378;10.010;2022-12-18T06:52:04;83.40;;;34.13;;
76346;SDS011;65171;48.378;10.010;2022-12-18T06:54:29;82.53;;;33.43;;
76346;SDS011;65171;48.378;10.010;2022-12-18T06:56:56;81.83;;;33.83;;
76346;SDS011;65171;48.378;10.010;2022-12-18T06:59:21;84.53;;;33.50;;
76346;SDS011;65171;48.378;10.010;2022-12-18T07:01:46;80.30;;;35.47;;
76346;SDS011;65171;48.378;10.010;2022-12-18T07:04:11;86.30;;;33.33;;
76346;SDS011;65171;48.378;10.010;2022-12-18T07:06:36;81.53;;;33.53;;
76346;SDS011;65171;48.378;10.010;2022-12-18T07:09:02;77.30;;;32.87;;
76346;SDS011;65171;48.378;10.010;2022-12-18T07:11:27;82.73;;;33.73;;
76346;SDS011;65171;48.378;10.010;2022-12-18T07:13:52;80.50;;;33.67;;
76346;SDS011;65171;48.378;10.010;2022-12-18T07:16:18;86.73;;;33.27;;
76346;SDS011;65171;48.378;10.010;2022-12-18T07:18:44;79.03;;;34.37;;
76346;SDS011;65171;48.378;10.010;2022-12-18T07:21:13;81.17;;;34.60;;
76346;SDS011;65171;48.378;10.010;2022-12-18T07:23:39;86.07;;;34.27;;
76346;SDS011;65171;48.378;10.010;2022-12-18T07:26:09;83.27;;;34.97;;
76346;SDS011;65171;48.378;10.010;2022-12-18T07:28:36;81.80;;;32.30;;
76346;SDS011;65171;48.378;10.010;2022-12-18T07:31:06;79.20;;;33.07;;
76346;SDS011;65171;48.378;10.010;2022-12-18T07:33:33;92.33;;;35.73;;
76346;SDS011;65171;48.378;10.010;2022-12-18T07:35:59;83.13;;;34.37;;
76346;SDS011;65171;48.378;10.010;2022-12-18T07:38:25;78.30;;;31.97;;
76346;SDS011;65171;48.378;10.010;2022-12-18T07:40:50;84.27;;;34.60;;
76346;SDS011;65171;48.378;10.010;2022-12-18T07:43:15;83.33;;;35.83;;
76346;SDS011;65171;48.378;10.010;2022-12-18T07:45:41;85.67;;;34.33;;
76346;SDS011;65171;48.378;10.010;2022-12-18T07:48:07;81.00;;;33.47;;
76346;SDS011;65171;48.378;10.010;2022-12-18T07:50:32;81.93;;;33.97;;
76346;SDS011;65171;48.378;10.010;2022-12-18T07:52:57;80.10;;;32.27;;
76346;SDS011;65171;48.378;10.010;2022-12-18T07:55:22;81.40;;;33.83;;
76346;SDS011;65171;48.378;10.010;2022-12-18T07:57:48;84.73;;;34.27;;
76346;SDS011;65171;48.378;10.010;2022-12-18T08:00:13;77.60;;;33.87;;
76346;SDS011;65171;48.378;10.010;2022-12-18T08:02:39;72.90;;;33.20;;
76346;SDS011;65171;48.378;10.010;2022-12-18T08:05:04;78.23;;;33.83;;
76346;SDS011;65171;48.378;10.010;2022-12-18T08:07:29;74.33;;;32.53;;
76346;SDS011;65171;48.378;10.010;2022-12-18T08:09:55;79.30;;;33.03;;
76346;SDS011;65171;48.378;10.010;2022-12-18T08:12:20;79.73;;;34.10;;
76346;SDS011;65171;48.378;10.010;2022-12-18T08:14:45;70.10;;;33.73;;
76346;SDS011;65171;48.378;10.010;2022-12-18T08:17:10;70.20;;;32.20;;
76346;SDS011;65171;48.378;10.010;2022-12-18T08:19:35;80.03;;;33.63;;
76346;SDS011;65171;48.378;10.010;2022-12-18T08:22:01;77.90;;;32.90;;
76346;SDS011;65171;48.378;10.010;2022-12-18T08:24:26;78.27;;;34.53;;
76346;SDS011;65171;48.378;10.010;2022-12-18T08:26:51;75.30;;;34.03;;
76346;SDS011;65171;48.378;10.010;2022-12-18T08:29:16;74.70;;;32.37;;
76346;SDS011;65171;48.378;10.010;2022-12-18T08:31:41;71.97;;;33.50;;
76346;SDS011;65171;48.378;10.010;2022-12-18T08:34:07;76.23;;;32.83;;
76346;SDS011;65171;48.378;10.010;2022-12-18T08:36:32;78.43;;;34.03;;
76346;SDS011;65171;48.378;10.010;2022-12-18T08:38:57;70.73;;;33.43;;
76346;SDS011;65171;48.378;10.010;2022-12-18T08:41:23;66.83;;;31.90;;
76346;SDS011;65171;48.378;10.010;2022-12-18T08:43:48;71.33;;;32.77;;
76346;SDS011;65171;48.378;10.010;2022-12-18T08:46:14;67.20;;;30.63;;
76346;SDS011;65171;48.378;10.010;2022-12-18T08:48:41;64.90;;;31.00;;
76346;SDS011;65171;48.378;10.010;2022-12-18T08:51:06;68.77;;;30.63;;
76346;SDS011;65171;48.378;10.010;2022-12-18T08:53:31;66.47;;;30.87;;
76346;SDS011;65171;48.378;10.010;2022-12-18T08:55:57;69.97;;;32.63;;
76346;SDS011;65171;48.378;10.010;2022-12-18T08:58:22;67.57;;;30.63;;
76346;SDS011;65171;48.378;10.010;2022-12-18T09:00:47;68.10;;;31.43;;
76346;SDS011;65171;48.378;10.010;2022-12-18T09:03:17;62.93;;;30.93;;
76346;SDS011;65171;48.378;10.010;2022-12-18T09:05:43;59.27;;;29.37;;
76346;SDS011;65171;48.378;10.010;2022-12-18T09:08:10;60.80;;;29.90;;
76346;SDS011;65171;48.378;10.010;2022-12-18T09:10:41;63.53;;;29.10;;
76346;SDS011;65171;48.378;10.010;2022-12-18T09:13:07;55.97;;;28.03;;
76346;SDS011;65171;48.378;10.010;2022-12-18T09:15:32;57.07;;;28.87;;
76346;SDS011;65171;48.378;10.010;2022-12-18T09:17:58;60.93;;;29.40;;
76346;SDS011;65171;48.378;10.010;2022-12-18T09:20:23;58.40;;;28.37;;
76346;SDS011;65171;48.378;10.010;2022-12-18T09:22:48;59.27;;;27.70;;
76346;SDS011;65171;48.378;10.010;2022-12-18T09:25:13;52.80;;;27.50;;
76346;SDS011;65171;48.378;10.010;2022-12-18T09:27:38;56.20;;;28.73;;
76346;SDS011;65171;48.378;10.010;2022-12-18T09:30:04;51.40;;;27.00;;
76346;SDS011;65171;48.378;10.010;2022-12-18T09:32:29;51.83;;;25.67;;
76346;SDS011;65171;48.378;10.010;2022-12-18T09:34:55;48.80;;;26.63;;
76346;SDS011;65171;48.378;10.010;2022-12-18T09:37:20;49.63;;;26.40;;
76346;SDS011;65171;48.378;10.010;2022-12-18T09:39:45;50.37;;;26.50;;
76346;SDS011;65171;48.378;10.010;2022-12-18T09:42:12;54.70;;;26.80;;
76346;SDS011;65171;48.378;10.010;2022-12-18T09:44:45;50.07;;;25.83;;
76346;SDS011;65171;48.378;10.010;2022-12-18T09:49:50;44.23;;;24.37;;
76346;SDS011;65171;48.378;10.010;2022-12-18T09:57:54;45.83;;;25.70;;
76346;SDS011;65171;48.378;10.010;2022-12-18T10:00:24;40.33;;;22.67;;
76346;SDS011;65171;48.378;10.010;2022-12-18T10:02:56;44.77;;;24.40;;
76346;SDS011;65171;48.378;10.010;2022-12-18T10:10:57;45.53;;;24.90;;
76346;SDS011;65171;48.378;10.010;2022-12-18T10:13:42;45.70;;;24.23;;
76346;SDS011;65171;48.378;10.010;2022-12-18T10:21:18;44.83;;;24.57;;
76346;SDS011;65171;48.378;10.010;2022-12-18T10:26:35;45.27;;;23.63;;
76346;SDS011;65171;48.378;10.010;2022-12-18T10:29:00;44.90;;;24.43;;
76346;SDS011;65171;48.378;10.010;2022-12-18T10:31:26;45.07;;;24.43;;
76346;SDS011;65171;48.378;10.010;2022-12-18T10:33:53;45.40;;;24.47;;
76346;SDS011;65171;48.378;10.010;2022-12-18T10:36:19;41.93;;;23.33;;
76346;SDS011;65171;48.378;10.010;2022-12-18T10:38:45;40.73;;;23.93;;
76346;SDS011;65171;48.378;10.010;2022-12-18T10:43:44;38.07;;;22.10;;
76346;SDS011;65171;48.378;10.010;2022-12-18T10:51:23;42.47;;;23.03;;
76346;SDS011;65171;48.378;10.010;2022-12-18T10:54:06;43.20;;;23.33;;
76346;SDS011;65171;48.378;10.010;2022-12-18T10:56:38;36.83;;;20.97;;
76346;SDS011;65171;48.378;10.010;2022-12-18T10:59:08;31.27;;;19.20;;
76346;SDS011;65171;48.378;10.010;2022-12-18T11:01:54;35.40;;;21.13;;
76346;SDS011;65171;48.378;10.010;2022-12-18T11:04:23;34.40;;;19.93;;
76346;SDS011;65171;48.378;10.010;2022-12-18T11:09:30;34.30;;;20.20;;
76346;SDS011;65171;48.378;10.010;2022-12-18T11:14:51;33.53;;;20.57;;
76346;SDS011;65171;48.378;10.010;2022-12-18T11:17:22;34.53;;;20.07;;
76346;SDS011;65171;48.378;10.010;2022-12-18T11:19:56;33.63;;;20.00;;
76346;SDS011;65171;48.378;10.010;2022-12-18T11:22:24;32.53;;;19.17;;
76346;SDS011;65171;48.378;10.010;2022-12-18T11:27:35;34.40;;;20.80;;
76346;SDS011;65171;48.378;10.010;2022-12-18T11:30:21;32.97;;;19.80;;
76346;SDS011;65171;48.378;10.010;2022-12-18T11:33:03;31.77;;;18.77;;
76346;SDS011;65171;48.378;10.010;2022-12-18T11:38:32;30.33;;;18.73;;
76346;SDS011;65171;48.378;10.010;2022-12-18T11:43:56;31.93;;;19.27;;
76346;SDS011;65171;48.378;10.010;2022-12-18T11:46:34;31.43;;;19.23;;
76346;SDS011;65171;48.378;10.010;2022-12-18T11:51:51;31.77;;;20.03;;
76346;SDS011;65171;48.378;10.010;2022-12-18T11:54:38;34.10;;;19.30;;
76346;SDS011;65171;48.378;10.010;2022-12-18T12:02:28;32.70;;;19.33;;
76346;SDS011;65171;48.378;10.010;2022-12-18T12:10:30;35.27;;;20.27;;
76346;SDS011;65171;48.378;10.010;2022-12-18T12:13:13;34.43;;;20.27;;
76346;SDS011;65171;48.378;10.010;2022-12-18T12:18:56;31.43;;;18.83;;
76346;SDS011;65171;48.378;10.010;2022-12-18T12:21:46;28.73;;;18.77;;
76346;SDS011;65171;48.378;10.010;2022-12-18T12:24:44;32.40;;;18.50;;
76346;SDS011;65171;48.378;10.010;2022-12-18T12:27:19;30.13;;;19.07;;
76346;SDS011;65171;48.378;10.010;2022-12-18T12:40:34;28.53;;;17.17;;
76346;SDS011;65171;48.378;10.010;2022-12-18T12:43:15;31.20;;;17.83;;
76346;SDS011;65171;48.378;10.010;2022-12-18T12:48:21;31.97;;;18.07;;
76346;SDS011;65171;48.378;10.010;2022-12-18T12:50:57;28.77;;;17.67;;
76346;SDS011;65171;48.378;10.010;2022-12-18T12:53:28;30.57;;;18.37;;
76346;SDS011;65171;48.378;10.010;2022-12-18T12:55:57;31.80;;;18.93;;
76346;SDS011;65171;48.378;10.010;2022-12-18T13:01:21;30.30;;;17.23;;
76346;SDS011;65171;48.378;10.010;2022-12-18T13:07:11;29.40;;;17.33;;
76346;SDS011;65171;48.378;10.010;2022-12-18T13:13:00;31.63;;;18.03;;
76346;SDS011;65171;48.378;10.010;2022-12-18T13:20:45;30.37;;;17.57;;
76346;SDS011;65171;48.378;10.010;2022-12-18T13:25:53;31.47;;;18.17;;
76346;SDS011;65171;48.378;10.010;2022-12-18T13:31:15;34.00;;;18.87;;
76346;SDS011;65171;48.378;10.010;2022-12-18T13:34:18;30.83;;;17.43;;
76346;SDS011;65171;48.378;10.010;2022-12-18T13:36:44;33.90;;;18.83;;
76346;SDS011;65171;48.378;10.010;2022-12-18T13:41:44;31.43;;;18.87;;
76346;SDS011;65171;48.378;10.010;2022-12-18T13:46:48;34.63;;;18.97;;
76346;SDS011;65171;48.378;10.010;2022-12-18T13:51:44;34.20;;;19.13;;
76346;SDS011;65171;48.378;10.010;2022-12-18T13:54:19;33.57;;;19.50;;
76346;SDS011;65171;48.378;10.010;2022-12-18T13:56:46;33.60;;;19.17;;
76346;SDS011;65171;48.378;10.010;2022-12-18T14:01:51;35.60;;;19.80;;
76346;SDS011;65171;48.378;10.010;2022-12-18T14:04:20;34.70;;;19.90;;
76346;SDS011;65171;48.378;10.010;2022-12-18T14:06:57;36.37;;;19.23;;
76346;SDS011;65171;48.378;10.010;2022-12-18T14:09:29;32.57;;;19.30;;
76346;SDS011;65171;48.378;10.010;2022-12-18T14:11:59;35.53;;;18.87;;
76346;SDS011;65171;48.378;10.010;2022-12-18T14:14:25;33.70;;;19.50;;
76346;SDS011;65171;48.378;10.010;2022-12-18T14:16:50;35.67;;;19.60;;
76346;SDS011;65171;48.378;10.010;2022-12-18T14:19:16;42.57;;;21.93;;
76346;SDS011;65171;48.378;10.010;2022-12-18T14:21:47;37.70;;;19.87;;
76346;SDS011;65171;48.378;10.010;2022-12-18T14:24:16;36.07;;;19.93;;
76346;SDS011;65171;48.378;10.010;2022-12-18T14:26:44;38.17;;;19.97;;
76346;SDS011;65171;48.378;10.010;2022-12-18T14:29:28;35.77;;;19.83;;
76346;SDS011;65171;48.378;10.010;2022-12-18T14:32:12;33.63;;;19.43;;
76346;SDS011;65171;48.378;10.010;2022-12-18T14:34:39;36.37;;;20.20;;
76346;SDS011;65171;48.378;10.010;2022-12-18T14:37:04;34.93;;;19.93;;
76346;SDS011;65171;48.378;10.010;2022-12-18T14:39:31;35.23;;;19.17;;
76346;SDS011;65171;48.378;10.010;2022-12-18T14:41:56;34.67;;;19.30;;
76346;SDS011;65171;48.378;10.010;2022-12-18T14:44:21;33.60;;;18.77;;
76346;SDS011;65171;48.378;10.010;2022-12-18T14:46:47;34.17;;;19.43;;
76346;SDS011;65171;48.378;10.010;2022-12-18T14:49:30;41.20;;;21.47;;
76346;SDS011;65171;48.378;10.010;2022-12-18T14:52:01;38.90;;;20.13;;
76346;SDS011;65171;48.378;10.010;2022-12-18T14:54:28;34.10;;;19.37;;
76346;SDS011;65171;48.378;10.010;2022-12-18T14:57:18;35.17;;;19.27;;
76346;SDS011;65171;48.378;10.010;2022-12-18T14:59:47;32.87;;;18.53;;
76346;SDS011;65171;48.378;10.010;2022-12-18T15:07:58;32.83;;;17.70;;
76346;SDS011;65171;48.378;10.010;2022-12-18T15:10:28;36.30;;;19.30;;
76346;SDS011;65171;48.378;10.010;2022-12-18T15:18:00;42.17;;;24.47;;
76346;SDS011;65171;48.378;10.010;2022-12-18T15:20:29;30.10;;;18.30;;
76346;SDS011;65171;48.378;10.010;2022-12-18T15:22:57;34.37;;;20.07;;
76346;SDS011;65171;48.378;10.010;2022-12-18T15:25:32;38.80;;;21.80;;
76346;SDS011;65171;48.378;10.010;2022-12-18T15:28:01;41.87;;;22.03;;
76346;SDS011;65171;48.378;10.010;2022-12-18T15:30:27;40.20;;;21.17;;
76346;SDS011;65171;48.378;10.010;2022-12-18T15:32:55;37.00;;;19.93;;
76346;SDS011;65171;48.378;10.010;2022-12-18T15:35:41;35.17;;;19.83;;
76346;SDS011;65171;48.378;10.010;2022-12-18T15:38:06;37.17;;;19.33;;
76346;SDS011;65171;48.378;10.010;2022-12-18T15:40:32;37.50;;;20.23;;
76346;SDS011;65171;48.378;10.010;2022-12-18T15:42:57;35.20;;;19.67;;
76346;SDS011;65171;48.378;10.010;2022-12-18T15:45:23;29.73;;;17.83;;
76346;SDS011;65171;48.378;10.010;2022-12-18T15:47:48;33.83;;;18.47;;
76346;SDS011;65171;48.378;10.010;2022-12-18T15:50:13;33.87;;;18.10;;
76346;SDS011;65171;48.378;10.010;2022-12-18T15:52:42;31.63;;;17.80;;
76346;SDS011;65171;48.378;10.010;2022-12-18T15:55:10;35.77;;;19.90;;
76346;SDS011;65171;48.378;10.010;2022-12-18T15:57:37;33.47;;;17.97;;
76346;SDS011;65171;48.378;10.010;2022-12-18T16:00:03;33.27;;;18.07;;
76346;SDS011;65171;48.378;10.010;2022-12-18T16:02:28;30.70;;;17.57;;
76346;SDS011;65171;48.378;10.010;2022-12-18T16:04:53;34.53;;;18.77;;
76346;SDS011;65171;48.378;10.010;2022-12-18T16:07:19;35.93;;;19.27;;
76346;SDS011;65171;48.378;10.010;2022-12-18T16:09:44;38.33;;;20.20;;
76346;SDS011;65171;48.378;10.010;2022-12-18T16:12:16;37.00;;;19.93;;
76346;SDS011;65171;48.378;10.010;2022-12-18T16:14:44;37.17;;;20.43;;
76346;SDS011;65171;48.378;10.010;2022-12-18T16:17:10;35.23;;;20.17;;
76346;SDS011;65171;48.378;10.010;2022-12-18T16:19:36;36.37;;;20.87;;
76346;SDS011;65171;48.378;10.010;2022-12-18T16:22:02;41.77;;;21.43;;
76346;SDS011;65171;48.378;10.010;2022-12-18T16:24:28;39.10;;;20.87;;
76346;SDS011;65171;48.378;10.010;2022-12-18T16:26:55;36.30;;;19.93;;
76346;SDS011;65171;48.378;10.010;2022-12-18T16:29:25;36.73;;;20.13;;
76346;SDS011;65171;48.378;10.010;2022-12-18T16:31:52;32.47;;;19.10;;
76346;SDS011;65171;48.378;10.010;2022-12-18T16:36:50;34.57;;;20.30;;
76346;SDS011;65171;48.378;10.010;2022-12-18T16:39:15;35.60;;;19.03;;